createdAt,value
2022-07-30T00:00:52.733Z,42.35
2022-07-30T00:01:52.697Z,42.35
2022-07-30T00:02:52.690Z,42.35
2022-07-30T00:03:52.753Z,42.35
2022-07-30T00:04:52.695Z,42.35
2022-07-30T00:05:52.695Z,42.35
2022-07-30T00:06:52.707Z,42.35
2022-07-30T00:07:52.703Z,42.35
2022-07-30T00:08:52.695Z,327.53
2022-07-30T00:09:52.698Z,29.65
2022-07-30T00:10:52.699Z,1.41
2022-07-30T00:11:52.702Z,1.41
2022-07-30T00:12:52.708Z,1.41
2022-07-30T00:13:52.714Z,300.71
2022-07-30T00:14:52.708Z,304.94
2022-07-30T00:15:52.700Z,304.94
2022-07-30T00:16:52.748Z,328.94
2022-07-30T00:17:52.712Z,304.94
2022-07-30T00:18:52.710Z,304.94
2022-07-30T00:19:52.708Z,304.94
2022-07-30T00:20:52.725Z,304.94
2022-07-30T00:21:52.715Z,304.94
2022-07-30T00:22:52.711Z,304.94
2022-07-30T00:24:01.161Z,304.94
2022-07-30T00:24:52.719Z,304.94
2022-07-30T00:25:52.721Z,290.82
2022-07-30T00:26:52.719Z,283.76
2022-07-30T00:27:52.727Z,290.82
2022-07-30T00:28:52.724Z,290.82
2022-07-30T00:29:52.726Z,290.82
2022-07-30T00:30:52.841Z,290.82
2022-07-30T00:31:52.725Z,290.82
2022-07-30T00:32:52.727Z,290.82
2022-07-30T00:33:52.724Z,290.82
2022-07-30T00:34:52.722Z,290.82
2022-07-30T00:35:52.727Z,290.82
2022-07-30T00:36:52.737Z,290.82
2022-07-30T00:37:52.727Z,290.82
2022-07-30T00:38:52.735Z,290.82
2022-07-30T00:39:52.731Z,290.82
2022-07-30T00:40:52.741Z,290.82
2022-07-30T00:41:52.740Z,290.82
2022-07-30T00:42:52.732Z,290.82
2022-07-30T00:43:52.734Z,290.82
2022-07-30T00:44:52.733Z,290.82
2022-07-30T00:45:52.771Z,290.82
2022-07-30T00:46:52.762Z,11.29
2022-07-30T00:47:52.731Z,31.06
2022-07-30T00:48:52.769Z,36.71
2022-07-30T00:49:52.752Z,29.65
2022-07-30T00:50:52.740Z,29.65
2022-07-30T00:51:52.743Z,29.65
2022-07-30T00:52:52.752Z,350.12
2022-07-30T00:53:52.748Z,2.82
2022-07-30T00:54:52.743Z,7.06
2022-07-30T00:55:52.741Z,25.41
2022-07-30T00:56:52.744Z,11.29
2022-07-30T00:57:52.746Z,345.88
2022-07-30T00:58:52.754Z,345.88
2022-07-30T00:59:52.746Z,345.88
2022-07-30T01:00:52.804Z,345.88
2022-07-30T01:01:52.775Z,341.65
2022-07-30T01:02:52.754Z,330.35
2022-07-30T01:03:52.748Z,330.35
2022-07-30T01:04:52.844Z,330.35
2022-07-30T01:05:52.758Z,330.35
2022-07-30T01:06:52.754Z,330.35
2022-07-30T01:07:52.762Z,330.35
2022-07-30T01:08:52.766Z,330.35
2022-07-30T01:09:52.759Z,330.35
2022-07-30T01:10:52.762Z,330.35
2022-07-30T01:11:52.760Z,330.35
2022-07-30T01:12:52.763Z,330.35
2022-07-30T01:13:52.756Z,330.35
2022-07-30T01:14:52.768Z,330.35
2022-07-30T01:15:52.773Z,330.35
2022-07-30T01:16:52.808Z,330.35
2022-07-30T01:17:53.172Z,330.35
2022-07-30T01:18:52.762Z,330.35
2022-07-30T01:19:52.765Z,330.35
2022-07-30T01:20:52.774Z,330.35
2022-07-30T01:21:52.773Z,330.35
2022-07-30T01:22:52.765Z,330.35
2022-07-30T01:23:52.777Z,330.35
2022-07-30T01:24:52.780Z,330.35
2022-07-30T01:25:52.779Z,331.76
2022-07-30T01:26:52.785Z,331.76
2022-07-30T01:27:52.774Z,331.76
2022-07-30T01:28:52.781Z,331.76
2022-07-30T01:29:52.781Z,331.76
2022-07-30T01:30:52.781Z,331.76
2022-07-30T01:31:52.832Z,331.76
2022-07-30T01:32:52.798Z,331.76
2022-07-30T01:33:52.792Z,331.76
2022-07-30T01:34:52.798Z,331.76
2022-07-30T01:35:52.796Z,5.65
2022-07-30T01:36:52.797Z,360
2022-07-30T01:37:52.790Z,15.53
2022-07-30T01:38:52.796Z,25.41
2022-07-30T01:39:52.798Z,1.41
2022-07-30T01:40:52.797Z,1.41
2022-07-30T01:41:52.797Z,358.59
2022-07-30T01:42:52.801Z,360
2022-07-30T01:43:52.803Z,26.82
2022-07-30T01:44:52.799Z,16.94
2022-07-30T01:45:52.870Z,7.06
2022-07-30T01:46:52.800Z,333.18
2022-07-30T01:47:52.803Z,357.18
2022-07-30T01:48:52.843Z,1.41
2022-07-30T01:49:52.807Z,1.41
2022-07-30T01:50:52.802Z,1.41
2022-07-30T01:51:52.808Z,1.41
2022-07-30T01:52:52.809Z,1.41
2022-07-30T01:53:52.804Z,1.41
2022-07-30T01:54:52.807Z,1.41
2022-07-30T01:55:52.806Z,1.41
2022-07-30T01:56:52.809Z,1.41
2022-07-30T01:57:52.820Z,1.41
2022-07-30T01:58:52.807Z,1.41
2022-07-30T01:59:52.822Z,1.41
2022-07-30T02:00:52.866Z,1.41
2022-07-30T02:01:52.819Z,1.41
2022-07-30T02:02:52.824Z,1.41
2022-07-30T02:03:52.846Z,1.41
2022-07-30T02:04:52.815Z,1.41
2022-07-30T02:05:52.824Z,1.41
2022-07-30T02:06:52.818Z,1.41
2022-07-30T02:07:52.820Z,1.41
2022-07-30T02:08:52.825Z,1.41
2022-07-30T02:09:52.841Z,1.41
2022-07-30T02:10:52.821Z,1.41
2022-07-30T02:11:52.823Z,1.41
2022-07-30T02:12:52.828Z,1.41
2022-07-30T02:13:52.823Z,1.41
2022-07-30T02:14:52.833Z,1.41
2022-07-30T02:15:52.831Z,1.41
2022-07-30T02:16:52.826Z,1.41
2022-07-30T02:17:52.834Z,1.41
2022-07-30T02:18:52.836Z,1.41
2022-07-30T02:19:52.831Z,1.41
2022-07-30T02:20:52.834Z,1.41
2022-07-30T02:21:52.834Z,1.41
2022-07-30T02:22:52.837Z,1.41
2022-07-30T02:23:52.835Z,1.41
2022-07-30T02:24:52.843Z,1.41
2022-07-30T02:25:52.846Z,1.41
2022-07-30T02:26:52.826Z,1.41
2022-07-30T02:27:52.842Z,1.41
2022-07-30T02:28:52.839Z,1.41
2022-07-30T02:29:52.838Z,1.41
2022-07-30T02:30:52.843Z,1.41
2022-07-30T02:31:52.864Z,1.41
2022-07-30T02:32:52.834Z,1.41
2022-07-30T02:33:52.845Z,1.41
2022-07-30T02:34:52.838Z,1.41
2022-07-30T02:35:52.848Z,1.41
2022-07-30T02:36:52.845Z,1.41
2022-07-30T02:37:52.839Z,1.41
2022-07-30T02:38:52.844Z,1.41
2022-07-30T02:39:52.839Z,1.41
2022-07-30T02:40:52.842Z,1.41
2022-07-30T02:41:52.836Z,1.41
2022-07-30T02:42:52.840Z,1.41
2022-07-30T02:43:52.842Z,1.41
2022-07-30T02:44:52.853Z,1.41
2022-07-30T02:45:52.843Z,1.41
2022-07-30T02:46:52.924Z,1.41
2022-07-30T02:47:52.854Z,1.41
2022-07-30T02:48:52.891Z,1.41
2022-07-30T02:49:52.847Z,1.41
2022-07-30T02:50:52.844Z,1.41
2022-07-30T02:51:52.854Z,1.41
2022-07-30T02:52:52.858Z,1.41
2022-07-30T02:53:52.854Z,1.41
2022-07-30T02:54:52.864Z,1.41
2022-07-30T02:55:52.843Z,1.41
2022-07-30T02:56:52.861Z,1.41
2022-07-30T02:57:52.866Z,1.41
2022-07-30T02:58:52.855Z,1.41
2022-07-30T02:59:52.859Z,1.41
2022-07-30T03:00:52.880Z,1.41
2022-07-30T03:01:52.896Z,1.41
2022-07-30T03:02:52.856Z,1.41
2022-07-30T03:03:52.853Z,1.41
2022-07-30T03:04:52.855Z,1.41
2022-07-30T03:05:52.863Z,1.41
2022-07-30T03:06:52.862Z,1.41
2022-07-30T03:07:52.859Z,1.41
2022-07-30T03:08:52.865Z,1.41
2022-07-30T03:09:52.859Z,1.41
2022-07-30T03:10:52.867Z,1.41
2022-07-30T03:11:52.865Z,1.41
2022-07-30T03:12:52.869Z,1.41
2022-07-30T03:13:52.854Z,1.41
2022-07-30T03:14:52.866Z,1.41
2022-07-30T03:15:53.004Z,1.41
2022-07-30T03:16:52.869Z,1.41
2022-07-30T03:17:52.872Z,1.41
2022-07-30T03:18:52.865Z,1.41
2022-07-30T03:19:52.873Z,1.41
2022-07-30T03:20:52.869Z,1.41
2022-07-30T03:21:52.865Z,1.41
2022-07-30T03:22:52.874Z,1.41
2022-07-30T03:23:52.869Z,1.41
2022-07-30T03:24:52.871Z,1.41
2022-07-30T03:25:53.719Z,1.41
2022-07-30T03:26:52.871Z,1.41
2022-07-30T03:27:52.874Z,1.41
2022-07-30T03:28:52.868Z,1.41
2022-07-30T03:29:52.870Z,1.41
2022-07-30T03:30:52.930Z,1.41
2022-07-30T03:31:52.940Z,1.41
2022-07-30T03:32:52.872Z,1.41
2022-07-30T03:33:52.867Z,1.41
2022-07-30T03:34:52.871Z,1.41
2022-07-30T03:35:52.861Z,1.41
2022-07-30T03:36:52.865Z,1.41
2022-07-30T03:37:52.873Z,1.41
2022-07-30T03:38:52.873Z,1.41
2022-07-30T03:39:52.873Z,1.41
2022-07-30T03:40:52.876Z,1.41
2022-07-30T03:41:52.879Z,1.41
2022-07-30T03:42:52.869Z,1.41
2022-07-30T03:43:52.879Z,1.41
2022-07-30T03:44:52.874Z,1.41
2022-07-30T03:45:52.884Z,1.41
2022-07-30T03:46:52.905Z,1.41
2022-07-30T03:47:52.870Z,1.41
2022-07-30T03:48:52.972Z,1.41
2022-07-30T03:49:52.879Z,1.41
2022-07-30T03:50:52.875Z,1.41
2022-07-30T03:51:52.877Z,1.41
2022-07-30T03:52:52.874Z,1.41
2022-07-30T03:53:52.891Z,1.41
2022-07-30T03:54:52.881Z,1.41
2022-07-30T03:55:52.893Z,1.41
2022-07-30T03:56:52.877Z,1.41
2022-07-30T03:57:52.891Z,1.41
2022-07-30T03:58:52.897Z,1.41
2022-07-30T03:59:52.899Z,1.41
2022-07-30T04:00:52.890Z,1.41
2022-07-30T04:01:52.989Z,1.41
2022-07-30T04:02:52.902Z,1.41
2022-07-30T04:03:53.026Z,1.41
2022-07-30T04:04:52.897Z,1.41
2022-07-30T04:05:52.895Z,1.41
2022-07-30T04:06:52.899Z,1.41
2022-07-30T04:07:52.893Z,1.41
2022-07-30T04:08:52.903Z,1.41
2022-07-30T04:09:52.922Z,1.41
2022-07-30T04:10:52.902Z,21.18
2022-07-30T04:11:52.903Z,15.53
2022-07-30T04:12:52.902Z,12.71
2022-07-30T04:13:52.895Z,337.41
2022-07-30T04:14:52.904Z,337.41
2022-07-30T04:16:04.748Z,337.41
2022-07-30T04:16:52.948Z,351.53
2022-07-30T04:17:52.907Z,351.53
2022-07-30T04:18:52.914Z,351.53
2022-07-30T04:19:52.909Z,19.76
2022-07-30T04:20:52.913Z,11.29
2022-07-30T04:21:52.913Z,14.12
2022-07-30T04:22:52.916Z,11.29
2022-07-30T04:24:02.014Z,7.06
2022-07-30T04:24:52.913Z,7.06
2022-07-30T04:25:52.919Z,7.06
2022-07-30T04:26:52.920Z,7.06
2022-07-30T04:27:58.362Z,7.06
2022-07-30T04:28:52.930Z,7.06
2022-07-30T04:29:52.918Z,7.06
2022-07-30T04:30:52.983Z,7.06
2022-07-30T04:31:52.921Z,7.06
2022-07-30T04:32:52.927Z,7.06
2022-07-30T04:33:52.933Z,7.06
2022-07-30T04:34:52.926Z,7.06
2022-07-30T04:35:52.928Z,7.06
2022-07-30T04:36:52.941Z,7.06
2022-07-30T04:37:52.931Z,7.06
2022-07-30T04:38:52.940Z,7.06
2022-07-30T04:39:52.932Z,7.06
2022-07-30T04:40:52.937Z,7.06
2022-07-30T04:41:52.944Z,7.06
2022-07-30T04:42:52.941Z,7.06
2022-07-30T04:43:52.940Z,7.06
2022-07-30T04:44:52.945Z,7.06
2022-07-30T04:45:52.949Z,7.06
2022-07-30T04:46:52.985Z,7.06
2022-07-30T04:47:52.945Z,7.06
2022-07-30T04:48:52.977Z,7.06
2022-07-30T04:49:52.947Z,7.06
2022-07-30T04:50:52.945Z,7.06
2022-07-30T04:51:52.951Z,7.06
2022-07-30T04:52:52.952Z,7.06
2022-07-30T04:53:52.957Z,7.06
2022-07-30T04:54:52.982Z,7.06
2022-07-30T04:55:52.960Z,7.06
2022-07-30T04:56:53.864Z,7.06
2022-07-30T04:57:52.964Z,7.06
2022-07-30T04:58:52.959Z,7.06
2022-07-30T04:59:52.957Z,7.06
2022-07-30T05:00:52.977Z,7.06
2022-07-30T05:01:53.032Z,7.06
2022-07-30T05:02:52.964Z,7.06
2022-07-30T05:03:52.970Z,7.06
2022-07-30T05:04:53.028Z,7.06
2022-07-30T05:05:56.868Z,7.06
2022-07-30T05:06:52.975Z,7.06
2022-07-30T05:07:52.975Z,7.06
2022-07-30T05:08:52.977Z,7.06
2022-07-30T05:09:52.975Z,7.06
2022-07-30T05:10:53.172Z,7.06
2022-07-30T05:11:52.994Z,7.06
2022-07-30T05:12:52.988Z,7.06
2022-07-30T05:13:52.982Z,7.06
2022-07-30T05:14:52.979Z,7.06
2022-07-30T05:15:53.016Z,7.06
2022-07-30T05:16:52.999Z,7.06
2022-07-30T05:17:52.991Z,7.06
2022-07-30T05:18:52.986Z,7.06
2022-07-30T05:19:52.986Z,7.06
2022-07-30T05:20:52.988Z,7.06
2022-07-30T05:21:53.013Z,7.06
2022-07-30T05:22:52.994Z,7.06
2022-07-30T05:23:53.000Z,7.06
2022-07-30T05:24:53.006Z,7.06
2022-07-30T05:25:53.019Z,7.06
2022-07-30T05:26:52.997Z,7.06
2022-07-30T05:27:53.004Z,7.06
2022-07-30T05:28:55.292Z,7.06
2022-07-30T05:29:53.014Z,7.06
2022-07-30T05:30:53.032Z,7.06
2022-07-30T05:31:53.013Z,7.06
2022-07-30T05:32:53.017Z,7.06
2022-07-30T05:33:53.015Z,7.06
2022-07-30T05:34:53.015Z,7.06
2022-07-30T05:35:53.012Z,7.06
2022-07-30T05:36:53.011Z,7.06
2022-07-30T05:37:53.022Z,7.06
2022-07-30T05:38:53.016Z,7.06
2022-07-30T05:39:57.626Z,7.06
2022-07-30T05:40:53.017Z,7.06
2022-07-30T05:41:53.025Z,7.06
2022-07-30T05:42:53.029Z,7.06
2022-07-30T05:43:55.600Z,7.06
2022-07-30T05:44:53.029Z,7.06
2022-07-30T05:45:53.042Z,7.06
2022-07-30T05:46:53.026Z,7.06
2022-07-30T05:47:53.030Z,7.06
2022-07-30T05:48:53.087Z,7.06
2022-07-30T05:49:53.025Z,7.06
2022-07-30T05:50:53.033Z,7.06
2022-07-30T05:51:53.035Z,7.06
2022-07-30T05:52:53.038Z,7.06
2022-07-30T05:53:53.039Z,7.06
2022-07-30T05:54:53.036Z,7.06
2022-07-30T05:55:53.037Z,7.06
2022-07-30T05:56:53.045Z,7.06
2022-07-30T05:57:53.042Z,7.06
2022-07-30T05:58:53.037Z,7.06
2022-07-30T05:59:53.046Z,7.06
2022-07-30T06:00:53.046Z,7.06
2022-07-30T06:01:53.075Z,7.06
2022-07-30T06:02:53.036Z,7.06
2022-07-30T06:03:53.045Z,7.06
2022-07-30T06:04:53.099Z,7.06
2022-07-30T06:05:53.048Z,7.06
2022-07-30T06:06:53.049Z,7.06
2022-07-30T06:07:53.050Z,7.06
2022-07-30T06:08:53.049Z,7.06
2022-07-30T06:09:53.053Z,7.06
2022-07-30T06:10:53.050Z,7.06
2022-07-30T06:11:53.055Z,7.06
2022-07-30T06:12:53.051Z,7.06
2022-07-30T06:13:53.057Z,7.06
2022-07-30T06:14:53.055Z,7.06
2022-07-30T06:15:53.093Z,7.06
2022-07-30T06:16:53.053Z,7.06
2022-07-30T06:17:57.249Z,7.06
2022-07-30T06:18:53.069Z,7.06
2022-07-30T06:19:53.065Z,7.06
2022-07-30T06:20:53.066Z,7.06
2022-07-30T06:21:59.782Z,7.06
2022-07-30T06:22:53.076Z,7.06
2022-07-30T06:23:53.073Z,7.06
2022-07-30T06:24:53.077Z,7.06
2022-07-30T06:25:53.073Z,7.06
2022-07-30T06:26:53.073Z,7.06
2022-07-30T06:27:53.081Z,7.06
2022-07-30T06:28:53.073Z,7.06
2022-07-30T06:29:53.075Z,7.06
2022-07-30T06:30:53.105Z,7.06
2022-07-30T06:31:53.080Z,7.06
2022-07-30T06:32:53.080Z,7.06
2022-07-30T06:33:53.082Z,7.06
2022-07-30T06:34:59.778Z,7.06
2022-07-30T06:35:53.079Z,7.06
2022-07-30T06:36:53.083Z,7.06
2022-07-30T06:37:57.706Z,7.06
2022-07-30T06:38:53.083Z,7.06
2022-07-30T06:39:53.927Z,7.06
2022-07-30T06:40:53.082Z,7.06
2022-07-30T06:41:53.081Z,7.06
2022-07-30T06:42:53.092Z,7.06
2022-07-30T06:43:53.093Z,7.06
2022-07-30T06:44:53.095Z,7.06
2022-07-30T06:45:53.135Z,7.06
2022-07-30T06:46:53.088Z,7.06
2022-07-30T06:47:53.095Z,7.06
2022-07-30T06:48:53.188Z,7.06
2022-07-30T06:49:53.097Z,7.06
2022-07-30T06:50:53.098Z,7.06
2022-07-30T06:51:53.094Z,7.06
2022-07-30T06:52:53.101Z,7.06
2022-07-30T06:53:53.102Z,7.06
2022-07-30T06:54:53.094Z,7.06
2022-07-30T06:55:53.119Z,7.06
2022-07-30T06:56:53.099Z,7.06
2022-07-30T06:57:53.100Z,7.06
2022-07-30T06:58:53.106Z,7.06
2022-07-30T06:59:55.872Z,7.06
2022-07-30T07:00:53.111Z,7.06
2022-07-30T07:01:53.134Z,7.06
2022-07-30T07:02:53.104Z,7.06
2022-07-30T07:03:53.107Z,7.06
2022-07-30T07:04:53.116Z,7.06
2022-07-30T07:05:53.114Z,7.06
2022-07-30T07:06:53.116Z,7.06
2022-07-30T07:07:59.059Z,7.06
2022-07-30T07:08:53.111Z,7.06
2022-07-30T07:09:53.111Z,7.06
2022-07-30T07:10:53.112Z,7.06
2022-07-30T07:11:53.109Z,7.06
2022-07-30T07:12:53.110Z,7.06
2022-07-30T07:13:53.159Z,7.06
2022-07-30T07:14:53.120Z,7.06
2022-07-30T07:15:53.122Z,7.06
2022-07-30T07:16:53.121Z,7.06
2022-07-30T07:17:53.116Z,7.06
2022-07-30T07:18:53.113Z,7.06
2022-07-30T07:20:00.640Z,7.06
2022-07-30T07:20:53.127Z,7.06
2022-07-30T07:21:53.114Z,7.06
2022-07-30T07:22:53.122Z,7.06
2022-07-30T07:23:53.121Z,7.06
2022-07-30T07:24:53.121Z,7.06
2022-07-30T07:25:53.122Z,7.06
2022-07-30T07:26:53.125Z,7.06
2022-07-30T07:28:11.524Z,7.06
2022-07-30T07:28:53.124Z,7.06
2022-07-30T07:30:01.150Z,7.06
2022-07-30T07:30:53.172Z,7.06
2022-07-30T07:32:02.883Z,7.06
2022-07-30T07:32:53.128Z,7.06
2022-07-30T07:33:53.132Z,7.06
2022-07-30T07:34:53.137Z,7.06
2022-07-30T07:35:53.131Z,7.06
2022-07-30T07:36:53.127Z,7.06
2022-07-30T07:37:53.132Z,7.06
2022-07-30T07:38:53.135Z,7.06
2022-07-30T07:39:53.141Z,7.06
2022-07-30T07:40:53.129Z,7.06
2022-07-30T07:41:53.137Z,7.06
2022-07-30T07:42:53.136Z,7.06
2022-07-30T07:43:53.135Z,7.06
2022-07-30T07:44:53.140Z,7.06
2022-07-30T07:45:53.166Z,7.06
2022-07-30T07:46:53.138Z,7.06
2022-07-30T07:47:53.542Z,7.06
2022-07-30T07:48:53.175Z,7.06
2022-07-30T07:49:53.137Z,7.06
2022-07-30T07:50:55.943Z,7.06
2022-07-30T07:51:53.130Z,7.06
2022-07-30T07:52:53.131Z,7.06
2022-07-30T07:54:11.856Z,7.06
2022-07-30T07:54:53.126Z,7.06
2022-07-30T07:55:53.130Z,7.06
2022-07-30T07:56:53.457Z,7.06
2022-07-30T07:57:53.136Z,7.06
2022-07-30T07:58:56.550Z,7.06
2022-07-30T07:59:53.136Z,7.06
2022-07-30T08:00:53.160Z,7.06
2022-07-30T08:01:53.139Z,7.06
2022-07-30T08:02:53.223Z,7.06
2022-07-30T08:03:53.136Z,7.06
2022-07-30T08:04:53.130Z,7.06
2022-07-30T08:05:54.123Z,7.06
2022-07-30T08:06:53.140Z,7.06
2022-07-30T08:07:53.135Z,7.06
2022-07-30T08:08:53.145Z,7.06
2022-07-30T08:09:53.154Z,7.06
2022-07-30T08:10:53.139Z,7.06
2022-07-30T08:11:53.153Z,7.06
2022-07-30T08:12:53.153Z,7.06
2022-07-30T08:13:53.286Z,7.06
2022-07-30T08:14:53.151Z,7.06
2022-07-30T08:15:53.162Z,7.06
2022-07-30T08:16:53.172Z,7.06
2022-07-30T08:17:53.157Z,7.06
2022-07-30T08:18:53.160Z,7.06
2022-07-30T08:19:53.157Z,7.06
2022-07-30T08:20:53.158Z,7.06
2022-07-30T08:21:53.154Z,7.06
2022-07-30T08:22:53.167Z,7.06
2022-07-30T08:23:53.153Z,7.06
2022-07-30T08:24:53.161Z,7.06
2022-07-30T08:25:53.160Z,7.06
2022-07-30T08:26:53.160Z,7.06
2022-07-30T08:27:53.323Z,7.06
2022-07-30T08:28:54.515Z,7.06
2022-07-30T08:29:53.162Z,7.06
2022-07-30T08:30:53.169Z,7.06
2022-07-30T08:31:53.159Z,7.06
2022-07-30T08:32:53.162Z,7.06
2022-07-30T08:33:53.169Z,7.06
2022-07-30T08:34:53.173Z,7.06
2022-07-30T08:35:55.589Z,7.06
2022-07-30T08:36:53.180Z,7.06
2022-07-30T08:37:53.168Z,7.06
2022-07-30T08:38:53.174Z,7.06
2022-07-30T08:39:53.181Z,7.06
2022-07-30T08:40:53.180Z,7.06
2022-07-30T08:41:53.181Z,7.06
2022-07-30T08:42:53.179Z,7.06
2022-07-30T08:43:53.174Z,7.06
2022-07-30T08:44:53.185Z,7.06
2022-07-30T08:45:53.185Z,7.06
2022-07-30T08:46:53.189Z,7.06
2022-07-30T08:47:53.192Z,7.06
2022-07-30T08:48:53.201Z,7.06
2022-07-30T08:49:53.188Z,7.06
2022-07-30T08:50:53.200Z,7.06
2022-07-30T08:51:53.198Z,7.06
2022-07-30T08:52:53.198Z,7.06
2022-07-30T08:53:53.202Z,7.06
2022-07-30T08:54:53.197Z,7.06
2022-07-30T08:55:56.884Z,7.06
2022-07-30T08:56:53.206Z,7.06
2022-07-30T08:57:53.205Z,7.06
2022-07-30T08:58:53.203Z,7.06
2022-07-30T08:59:59.753Z,7.06
2022-07-30T09:00:53.228Z,7.06
2022-07-30T09:01:53.214Z,7.06
2022-07-30T09:02:53.212Z,7.06
2022-07-30T09:03:53.253Z,7.06
2022-07-30T09:04:53.208Z,7.06
2022-07-30T09:05:53.214Z,7.06
2022-07-30T09:06:53.215Z,7.06
2022-07-30T09:07:53.214Z,7.06
2022-07-30T09:08:53.228Z,7.06
2022-07-30T09:09:53.224Z,7.06
2022-07-30T09:10:53.642Z,7.06
2022-07-30T09:11:53.223Z,7.06
2022-07-30T09:12:53.222Z,7.06
2022-07-30T09:13:53.230Z,7.06
2022-07-30T09:14:53.229Z,7.06
2022-07-30T09:15:53.233Z,7.06
2022-07-30T09:16:53.232Z,7.06
2022-07-30T09:17:53.244Z,7.06
2022-07-30T09:18:53.231Z,7.06
2022-07-30T09:19:53.234Z,7.06
2022-07-30T09:20:53.224Z,7.06
2022-07-30T09:21:53.230Z,7.06
2022-07-30T09:22:53.237Z,7.06
2022-07-30T09:23:53.235Z,7.06
2022-07-30T09:24:53.235Z,7.06
2022-07-30T09:25:53.232Z,7.06
2022-07-30T09:26:53.232Z,7.06
2022-07-30T09:27:53.240Z,7.06
2022-07-30T09:28:53.236Z,7.06
2022-07-30T09:29:53.243Z,7.06
2022-07-30T09:30:53.231Z,7.06
2022-07-30T09:31:53.245Z,7.06
2022-07-30T09:32:53.247Z,7.06
2022-07-30T09:33:53.243Z,7.06
2022-07-30T09:34:53.243Z,7.06
2022-07-30T09:35:53.239Z,7.06
2022-07-30T09:36:53.239Z,7.06
2022-07-30T09:37:53.243Z,7.06
2022-07-30T09:38:53.248Z,7.06
2022-07-30T09:39:56.717Z,7.06
2022-07-30T09:40:57.482Z,7.06
2022-07-30T09:41:53.257Z,7.06
2022-07-30T09:42:53.247Z,7.06
2022-07-30T09:43:53.251Z,7.06
2022-07-30T09:44:53.252Z,7.06
2022-07-30T09:45:56.960Z,7.06
2022-07-30T09:46:53.253Z,7.06
2022-07-30T09:47:53.262Z,7.06
2022-07-30T09:48:53.296Z,306.35
2022-07-30T09:49:53.261Z,297.88
2022-07-30T09:50:53.264Z,299.29
2022-07-30T09:51:54.976Z,296.47
2022-07-30T09:52:53.261Z,306.35
2022-07-30T09:53:53.260Z,310.59
2022-07-30T09:54:53.283Z,307.76
2022-07-30T09:55:53.265Z,310.59
2022-07-30T09:56:53.612Z,316.24
2022-07-30T09:57:56.543Z,340.24
2022-07-30T09:58:53.267Z,331.76
2022-07-30T09:59:53.260Z,8.47
2022-07-30T10:01:54.845Z,299.29
2022-07-30T10:02:53.271Z,297.88
2022-07-30T10:03:53.270Z,244.24
2022-07-30T10:04:53.274Z,279.53
2022-07-30T10:05:53.267Z,245.65
2022-07-30T10:06:53.275Z,237.18
2022-07-30T10:07:53.282Z,299.29
2022-07-30T10:08:53.268Z,330.35
2022-07-30T10:09:53.279Z,8.47
2022-07-30T10:10:53.267Z,7.06
2022-07-30T10:11:53.278Z,269.65
2022-07-30T10:12:53.275Z,240
2022-07-30T10:13:53.276Z,331.76
2022-07-30T10:14:53.278Z,288
2022-07-30T10:15:53.275Z,18.35
2022-07-30T10:16:53.277Z,360
2022-07-30T10:17:53.282Z,299.29
2022-07-30T10:18:53.284Z,344.47
2022-07-30T10:19:53.266Z,320.47
2022-07-30T10:20:53.279Z,280.94
2022-07-30T10:21:53.282Z,285.18
2022-07-30T10:22:53.294Z,283.76
2022-07-30T10:23:53.284Z,282.35
2022-07-30T10:24:53.282Z,295.06
2022-07-30T10:25:55.257Z,310.59
2022-07-30T10:26:53.285Z,288
2022-07-30T10:27:57.254Z,265.41
2022-07-30T10:28:53.291Z,289.41
2022-07-30T10:29:53.283Z,262.59
2022-07-30T10:30:53.298Z,330.35
2022-07-30T10:31:54.327Z,290.82
2022-07-30T10:32:53.282Z,290.82
2022-07-30T10:33:53.286Z,327.53
2022-07-30T10:34:53.279Z,266.82
2022-07-30T10:35:53.287Z,321.88
2022-07-30T10:36:53.281Z,302.12
2022-07-30T10:37:53.283Z,1.41
2022-07-30T10:38:53.284Z,351.53
2022-07-30T10:39:53.286Z,360
2022-07-30T10:40:53.296Z,360
2022-07-30T10:41:54.042Z,355.76
2022-07-30T10:42:53.287Z,307.76
2022-07-30T10:43:53.295Z,350.12
2022-07-30T10:44:53.293Z,348.71
2022-07-30T10:45:53.294Z,343.06
2022-07-30T10:46:53.297Z,326.12
2022-07-30T10:47:53.294Z,289.41
2022-07-30T10:48:53.345Z,303.53
2022-07-30T10:49:53.297Z,303.53
2022-07-30T10:50:53.298Z,312
2022-07-30T10:51:53.306Z,292.24
2022-07-30T10:52:53.302Z,313.41
2022-07-30T10:53:53.298Z,295.06
2022-07-30T10:54:53.291Z,324.71
2022-07-30T10:55:53.297Z,327.53
2022-07-30T10:56:53.298Z,278.12
2022-07-30T10:57:53.301Z,272.47
2022-07-30T10:58:53.302Z,303.53
2022-07-30T10:59:53.299Z,299.29
2022-07-30T11:00:53.301Z,283.76
2022-07-30T11:01:53.751Z,312
2022-07-30T11:02:53.301Z,299.29
2022-07-30T11:03:53.308Z,306.35
2022-07-30T11:04:53.307Z,307.76
2022-07-30T11:05:53.296Z,300.71
2022-07-30T11:06:53.304Z,302.12
2022-07-30T11:07:53.308Z,295.06
2022-07-30T11:08:57.053Z,292.24
2022-07-30T11:09:58.029Z,292.24
2022-07-30T11:10:53.308Z,292.24
2022-07-30T11:12:00.227Z,241.41
2022-07-30T11:12:53.321Z,15.53
2022-07-30T11:13:53.422Z,72
2022-07-30T11:14:53.315Z,5.65
2022-07-30T11:15:53.309Z,299.29
2022-07-30T11:16:53.316Z,324.71
2022-07-30T11:17:53.320Z,300.71
2022-07-30T11:19:02.348Z,9.88
2022-07-30T11:20:01.759Z,358.59
2022-07-30T11:20:53.327Z,31.06
2022-07-30T11:21:53.322Z,360
2022-07-30T11:22:53.310Z,334.59
2022-07-30T11:23:54.691Z,347.29
2022-07-30T11:24:53.323Z,35.29
2022-07-30T11:25:54.386Z,300.71
2022-07-30T11:26:53.324Z,293.65
2022-07-30T11:27:53.328Z,336
2022-07-30T11:28:53.324Z,14.12
2022-07-30T11:29:53.325Z,46.59
2022-07-30T11:30:53.328Z,351.53
2022-07-30T11:31:56.707Z,333.18
2022-07-30T11:32:53.328Z,336
2022-07-30T11:33:53.324Z,80.47
2022-07-30T11:34:53.336Z,50.82
2022-07-30T11:35:53.325Z,8.47
2022-07-30T11:36:53.332Z,21.18
2022-07-30T11:37:53.338Z,5.65
2022-07-30T11:38:53.328Z,290.82
2022-07-30T11:39:53.333Z,341.65
2022-07-30T11:40:53.330Z,326.12
2022-07-30T11:41:53.328Z,225.88
2022-07-30T11:42:53.332Z,328.94
2022-07-30T11:43:53.320Z,7.06
2022-07-30T11:44:53.324Z,7.06
2022-07-30T11:45:53.333Z,326.12
2022-07-30T11:46:53.343Z,12.71
2022-07-30T11:47:53.333Z,331.76
2022-07-30T11:48:53.372Z,240
2022-07-30T11:49:53.338Z,302.12
2022-07-30T11:50:53.337Z,282.35
2022-07-30T11:51:53.337Z,295.06
2022-07-30T11:52:53.332Z,303.53
2022-07-30T11:53:53.335Z,237.18
2022-07-30T11:54:53.338Z,197.65
2022-07-30T11:55:53.361Z,141.18
2022-07-30T11:56:53.345Z,141.18
2022-07-30T11:57:53.344Z,141.18
2022-07-30T11:58:53.342Z,76.24
2022-07-30T11:59:53.351Z,326.12
2022-07-30T12:00:53.342Z,293.65
2022-07-30T12:01:53.349Z,4.24
2022-07-30T12:02:53.349Z,338.82
2022-07-30T12:03:53.348Z,302.12
2022-07-30T12:04:53.348Z,22.59
2022-07-30T12:05:53.600Z,351.53
2022-07-30T12:06:53.352Z,341.65
2022-07-30T12:07:53.352Z,42.35
2022-07-30T12:08:57.988Z,347.29
2022-07-30T12:09:53.349Z,14.12
2022-07-30T12:10:53.358Z,15.53
2022-07-30T12:11:53.358Z,290.82
2022-07-30T12:12:53.357Z,321.88
2022-07-30T12:13:53.355Z,352.94
2022-07-30T12:14:53.377Z,352.94
2022-07-30T12:15:53.357Z,31.06
2022-07-30T12:16:53.397Z,345.88
2022-07-30T12:18:05.579Z,5.65
2022-07-30T12:18:53.347Z,15.53
2022-07-30T12:19:53.358Z,48
2022-07-30T12:20:53.356Z,345.88
2022-07-30T12:21:53.872Z,36.71
2022-07-30T12:22:53.360Z,321.88
2022-07-30T12:23:53.364Z,336
2022-07-30T12:24:53.357Z,338.82
2022-07-30T12:25:53.353Z,327.53
2022-07-30T12:26:53.354Z,12.71
2022-07-30T12:27:53.347Z,357.18
2022-07-30T12:28:53.358Z,327.53
2022-07-30T12:29:53.362Z,345.88
2022-07-30T12:30:53.355Z,344.47
2022-07-30T12:31:53.361Z,29.65
2022-07-30T12:32:53.355Z,55.06
2022-07-30T12:33:53.359Z,2.82
2022-07-30T12:34:53.363Z,314.82
2022-07-30T12:35:53.356Z,326.12
2022-07-30T12:36:53.368Z,49.41
2022-07-30T12:37:53.357Z,76.24
2022-07-30T12:38:53.361Z,5.65
2022-07-30T12:39:53.362Z,28.24
2022-07-30T12:40:53.360Z,16.94
2022-07-30T12:41:53.358Z,360
2022-07-30T12:42:53.366Z,360
2022-07-30T12:43:53.357Z,293.65
2022-07-30T12:44:53.362Z,7.06
2022-07-30T12:45:54.142Z,31.06
2022-07-30T12:46:53.356Z,360
2022-07-30T12:47:53.362Z,28.24
2022-07-30T12:48:53.396Z,18.35
2022-07-30T12:49:53.644Z,360
2022-07-30T12:50:53.367Z,24
2022-07-30T12:51:57.444Z,36.71
2022-07-30T12:52:53.371Z,32.47
2022-07-30T12:53:53.367Z,28.24
2022-07-30T12:54:53.372Z,86.12
2022-07-30T12:55:53.388Z,80.47
2022-07-30T12:56:53.377Z,42.35
2022-07-30T12:57:53.372Z,70.59
2022-07-30T12:58:53.377Z,33.88
2022-07-30T12:59:53.392Z,358.59
2022-07-30T13:00:53.381Z,333.18
2022-07-30T13:01:53.423Z,327.53
2022-07-30T13:02:53.378Z,304.94
2022-07-30T13:03:53.380Z,304.94
2022-07-30T13:04:54.816Z,312